createdAt,value
2023-04-02T00:01:14.704Z,99544.80
2023-04-02T00:04:04.122Z,99544.30
2023-04-02T00:06:40.558Z,99545.50
2023-04-02T00:09:14.694Z,99541.19
2023-04-02T00:11:50.150Z,99543.77
2023-04-02T00:14:26.191Z,99547.36
2023-04-02T00:16:54.716Z,99548.02
2023-04-02T00:19:28.718Z,99551.63
2023-04-02T00:21:57.182Z,99548.19
2023-04-02T00:24:25.614Z,99548.19
2023-04-02T00:26:54.503Z,99553.34
2023-04-02T00:29:22.706Z,99543.03
2023-04-02T00:31:51.864Z,99545.09
2023-04-02T00:34:24.206Z,99547.84
2023-04-02T00:36:52.980Z,99550.25
2023-04-02T00:39:25.415Z,99549.73
2023-04-02T00:41:58.998Z,99547.19
2023-04-02T00:44:29.478Z,99552.52
2023-04-02T00:46:58.563Z,99554.77
2023-04-02T00:49:30.124Z,99547.03
2023-04-02T00:51:59.296Z,99548.06
2023-04-02T00:54:28.342Z,99551.17
2023-04-02T00:56:56.697Z,99545.16
2023-04-02T00:59:25.129Z,99544.98
2023-04-02T01:01:54.992Z,99542.92
2023-04-02T01:04:31.720Z,99545.66
2023-04-02T01:07:05.346Z,99551.15
2023-04-02T01:09:52.862Z,99551.14
2023-04-02T01:12:32.963Z,99554.56
2023-04-02T01:15:07.319Z,99554.73
2023-04-02T01:17:39.854Z,99556.77
2023-04-02T01:20:26.805Z,99545.61
2023-04-02T01:23:00.651Z,99548.88
2023-04-02T01:25:49.124Z,99547.33
2023-04-02T01:28:19.859Z,99544.39
2023-04-02T01:30:51.720Z,99542.67
2023-04-02T01:33:28.455Z,99544.20
2023-04-02T01:36:17.837Z,99543.17
2023-04-02T01:38:58.840Z,99552.80
2023-04-02T01:41:28.684Z,99550.02
2023-04-02T01:44:09.953Z,99552.25
2023-04-02T01:46:40.431Z,99544.33
2023-04-02T01:49:20.124Z,99549.30
2023-04-02T01:51:53.222Z,99552.40
2023-04-02T01:54:22.225Z,99556.34
2023-04-02T01:56:50.692Z,99553.41
2023-04-02T01:59:22.559Z,99550.48
2023-04-02T02:02:04.395Z,99545.16
2023-04-02T02:04:34.132Z,99540.34
2023-04-02T02:07:02.712Z,99542.75
2023-04-02T02:09:34.501Z,99535.36
2023-04-02T02:12:03.253Z,99540.34
2023-04-02T02:14:31.613Z,99542.91
2023-04-02T02:17:02.318Z,99538.79
2023-04-02T02:19:38.749Z,99541.88
2023-04-02T02:22:09.269Z,99541.71
2023-04-02T02:24:38.271Z,99542.05
2023-04-02T02:27:22.779Z,99548.58
2023-04-02T02:30:12.953Z,99549.94
2023-04-02T02:32:46.811Z,99550.98
2023-04-02T02:35:48.107Z,99542.73
2023-04-02T02:38:34.368Z,99546.52
2023-04-02T02:41:26.565Z,99543.42
2023-04-02T02:44:06.209Z,99549.27
2023-04-02T02:46:34.835Z,99553.05
2023-04-02T02:49:04.764Z,99550.47
2023-04-02T02:51:40.975Z,99554.39
2023-04-02T02:54:09.913Z,99554.04
2023-04-02T02:56:40.498Z,99555.59
2023-04-02T02:59:08.911Z,99550.24
2023-04-02T03:01:44.231Z,99558.86
2023-04-02T03:04:12.855Z,99552.84
2023-04-02T03:06:41.939Z,99562.77
2023-04-02T03:09:13.613Z,99561.57
2023-04-02T03:11:47.646Z,99556.59
2023-04-02T03:14:21.531Z,99560.71
2023-04-02T03:16:51.020Z,99555.39
2023-04-02T03:19:24.374Z,99559.68
2023-04-02T03:21:57.364Z,99552.12
2023-04-02T03:24:32.745Z,99548.67
2023-04-02T03:27:03.577Z,99559.36
2023-04-02T03:29:37.093Z,99558.85
2023-04-02T03:32:06.256Z,99560.95
2023-04-02T03:34:37.049Z,99554.62
2023-04-02T03:37:07.028Z,99557.73
2023-04-02T03:40:02.091Z,99553.83
2023-04-02T03:42:51.119Z,99556.58
2023-04-02T03:45:20.852Z,99555.72
2023-04-02T03:48:03.326Z,99559.84
2023-04-02T03:50:43.436Z,99562.59
2023-04-02T03:53:11.868Z,99561.75
2023-04-02T03:55:41.233Z,99558.67
2023-04-02T03:58:34.034Z,99560.43
2023-04-02T04:01:07.357Z,99564.41
2023-04-02T04:03:37.550Z,99565.64
2023-04-02T04:06:07.044Z,99565.30
2023-04-02T04:08:42.861Z,99571.83
2023-04-02T04:11:14.078Z,99567.86
2023-04-02T04:13:47.445Z,99574.37
2023-04-02T04:16:30.460Z,99570.08
2023-04-02T04:19:06.866Z,99574.19
2023-04-02T04:21:38.607Z,99578.46
2023-04-02T04:24:22.179Z,99585.15
2023-04-02T04:26:54.305Z,99586.02
2023-04-02T04:29:25.708Z,99579.98
2023-04-02T04:31:55.983Z,99579.12
2023-04-02T04:34:53.855Z,99572.07
2023-04-02T04:37:33.816Z,99575.66
2023-04-02T04:40:07.777Z,99580.79
2023-04-02T04:42:36.941Z,99574.94
2023-04-02T04:45:23.157Z,99575.45
2023-04-02T04:47:54.358Z,99581.27
2023-04-02T04:50:29.446Z,99577.33
2023-04-02T04:52:58.565Z,99577.48
2023-04-02T04:55:31.245Z,99575.75
2023-04-02T04:58:05.016Z,99570.94
2023-04-02T05:00:42.487Z,99575.90
2023-04-02T05:03:23.723Z,99570.73
2023-04-02T05:05:52.950Z,99573.13
2023-04-02T05:08:22.554Z,99575.34
2023-04-02T05:11:01.165Z,99580.98
2023-04-02T05:13:33.840Z,99576.81
2023-04-02T05:16:17.057Z,99577.64
2023-04-02T05:19:06.980Z,99578.14
2023-04-02T05:21:47.914Z,99577.23
2023-04-02T05:24:35.092Z,99570.79
2023-04-02T05:27:05.652Z,99578.77
2023-04-02T05:29:35.831Z,99580.55
2023-04-02T05:32:06.251Z,99585.21
2023-04-02T05:34:37.330Z,99586.42
2023-04-02T05:37:07.229Z,99584.46
2023-04-02T05:39:37.152Z,99586.49
2023-04-02T05:42:06.078Z,99577.35
2023-04-02T05:44:45.755Z,99570.59
2023-04-02T05:47:18.042Z,99577.28
2023-04-02T05:49:51.862Z,99575.70
2023-04-02T05:52:23.288Z,99580.63
2023-04-02T05:54:54.990Z,99580.73
2023-04-02T05:57:39.465Z,99573.80
2023-04-02T06:00:09.054Z,99577.38
2023-04-02T06:02:43.084Z,99565.65
2023-04-02T06:05:13.645Z,99575.09
2023-04-02T06:07:46.637Z,99575.91
2023-04-02T06:10:24.158Z,99565.89
2023-04-02T06:13:03.643Z,99567.02
2023-04-02T06:15:36.695Z,99568.86
2023-04-02T06:18:20.087Z,99565.19
2023-04-02T06:20:49.898Z,99570.61
2023-04-02T06:23:32.405Z,99574.09
2023-04-02T06:26:04.257Z,99573.52
2023-04-02T06:28:39.333Z,99583.82
2023-04-02T06:31:11.401Z,99588.06
2023-04-02T06:40:28.185Z,99580.08
2023-04-02T06:42:59.950Z,99577.63
2023-04-02T06:45:57.351Z,99597.56
2023-04-02T06:48:33.868Z,99590.45
2023-04-02T06:51:09.741Z,99586.66
2023-04-02T06:53:40.528Z,99590.14
2023-04-02T06:56:17.408Z,99592.61
2023-04-02T06:58:46.457Z,99601.20
2023-04-02T07:01:17.034Z,99602.52
2023-04-02T07:03:46.672Z,99597.33
2023-04-02T07:06:23.472Z,99602.98
2023-04-02T07:08:55.377Z,99594.73
2023-04-02T07:11:24.602Z,99592.42
2023-04-02T07:13:55.249Z,99601.13
2023-04-02T07:16:25.798Z,99601.61
2023-04-02T07:18:55.855Z,99593.29
2023-04-02T07:21:26.927Z,99599.96
2023-04-02T07:23:55.808Z,99601.66
2023-04-02T07:26:28.114Z,99599.34
2023-04-02T07:28:56.405Z,99591.80
2023-04-02T07:31:26.062Z,99592.34
2023-04-02T07:33:54.815Z,99599.20
2023-04-02T07:36:23.505Z,99589.80
2023-04-02T07:38:52.137Z,99581.31
2023-04-02T07:41:21.232Z,99586.95
2023-04-02T07:43:49.689Z,99593.42
2023-04-02T07:46:19.391Z,99583.35
2023-04-02T07:48:47.892Z,99567.85
2023-04-02T07:51:20.062Z,99567.70
2023-04-02T07:53:55.009Z,99579.31
2023-04-02T07:56:23.694Z,99567.57
2023-04-02T07:58:52.403Z,99564.83
2023-04-02T08:01:24.200Z,99556.02
2023-04-02T08:03:54.765Z,99565.17
2023-04-02T08:06:23.635Z,99566.18
2023-04-02T08:08:52.110Z,99565.45
2023-04-02T08:11:20.306Z,99547.63
2023-04-02T08:13:54.318Z,99551.35
2023-04-02T08:16:24.023Z,99549.98
2023-04-02T08:18:52.338Z,99537.10
2023-04-02T08:21:20.787Z,99544.41
2023-04-02T08:23:49.089Z,99537.09
2023-04-02T08:26:18.140Z,99533.02
2023-04-02T08:28:46.542Z,99541.16
2023-04-02T08:31:17.410Z,99541.83
2023-04-02T08:33:46.195Z,99531.36
2023-04-02T08:36:15.943Z,99528.75
2023-04-02T08:38:44.518Z,99529.70
2023-04-02T08:41:23.312Z,99534.14
2023-04-02T08:44:00.866Z,99524.36
2023-04-02T08:46:29.345Z,99546.40
2023-04-02T08:48:58.360Z,99533.73
2023-04-02T08:51:27.951Z,99534.02
2023-04-02T08:54:15.060Z,99534.27
2023-04-02T08:56:44.263Z,99535.02
2023-04-02T08:59:15.619Z,99542.96
2023-04-02T09:01:44.219Z,99549.91
2023-04-02T09:04:14.626Z,99550.35
2023-04-02T09:06:44.030Z,99553.33
2023-04-02T09:09:12.748Z,99553.61
2023-04-02T09:11:54.526Z,99548.84
2023-04-02T09:14:41.712Z,99553.81
2023-04-02T09:17:19.919Z,99557.35
2023-04-02T09:20:06.555Z,99570.00
2023-04-02T09:22:35.817Z,99565.74
2023-04-02T09:25:05.187Z,99572.66
2023-04-02T09:27:36.156Z,99574.23
2023-04-02T09:30:24.392Z,99573.89
2023-04-02T09:32:53.517Z,99569.88
2023-04-02T09:35:26.470Z,99567.92
2023-04-02T09:38:07.575Z,99571.73
2023-04-02T09:41:01.140Z,99564.61
2023-04-02T09:43:30.202Z,99562.60
2023-04-02T09:46:13.887Z,99567.33
2023-04-02T09:48:46.834Z,99568.70
2023-04-02T09:51:20.431Z,99563.52
2023-04-02T09:53:49.558Z,99559.55
2023-04-02T09:56:19.109Z,99555.52
2023-04-02T09:59:02.789Z,99553.31
2023-04-02T10:01:32.544Z,99557.14
2023-04-02T10:04:02.328Z,99552.47
2023-04-02T10:06:30.782Z,99550.59
2023-04-02T10:08:59.077Z,99549.86
2023-04-02T10:11:36.498Z,99547.38
2023-04-02T10:14:24.545Z,99541.48
2023-04-02T10:17:13.808Z,99546.36
2023-04-02T10:19:48.982Z,99538.02
2023-04-02T10:22:17.861Z,99558.15
2023-04-02T10:24:46.438Z,99549.26
2023-04-02T10:27:17.304Z,99560.94
2023-04-02T10:29:55.611Z,99555.34
2023-04-02T10:32:23.763Z,99557.83
2023-04-02T10:34:59.077Z,99554.29
2023-04-02T10:37:36.524Z,99562.48
2023-04-02T10:40:12.396Z,99557.66
2023-04-02T10:42:46.445Z,99552.17
2023-04-02T10:45:14.550Z,99541.48
2023-04-02T10:47:45.901Z,99529.07
2023-04-02T10:50:25.871Z,99522.98
2023-04-02T10:53:09.630Z,99515.30
2023-04-02T10:55:43.418Z,99526.84
2023-04-02T10:58:20.019Z,99528.89
2023-04-02T11:01:02.164Z,99530.27
2023-04-02T11:03:38.228Z,99538.48
2023-04-02T11:06:19.010Z,99532.34
2023-04-02T11:08:49.146Z,99522.86
2023-04-02T11:11:36.785Z,99513.98
2023-04-02T11:14:05.013Z,99519.30
2023-04-02T11:16:35.018Z,99515.95
2023-04-02T11:19:17.328Z,99509.27
2023-04-02T11:21:58.719Z,99516.08
2023-04-02T11:24:37.058Z,99527.65
2023-04-02T11:27:16.612Z,99526.02
2023-04-02T11:29:49.875Z,99524.25
2023-04-02T11:32:25.673Z,99515.89
2023-04-02T11:35:05.687Z,99518.44
2023-04-02T11:37:39.531Z,99527.98
2023-04-02T11:40:11.047Z,99528.80
2023-04-02T11:42:48.824Z,99523.69
2023-04-02T11:45:29.235Z,99517.94
2023-04-02T11:48:00.422Z,99506.53
2023-04-02T11:50:29.361Z,99513.39
2023-04-02T11:53:02.200Z,99501.97
2023-04-02T11:55:32.260Z,99520.81
2023-04-02T11:58:21.131Z,99511.76
2023-04-02T12:01:08.201Z,99506.90
2023-04-02T12:03:48.646Z,99527.42
2023-04-02T12:06:35.411Z,99522.98
2023-04-02T12:09:23.840Z,99525.09
2023-04-02T12:11:52.813Z,99524.83
2023-04-02T12:14:41.141Z,99514.25
2023-04-02T12:17:28.075Z,99522.91
2023-04-02T12:19:59.813Z,99515.77
2023-04-02T12:22:29.136Z,99504.90
2023-04-02T12:25:00.628Z,99504.63
2023-04-02T12:27:29.716Z,99504.71
2023-04-02T12:30:16.636Z,99514.31
2023-04-02T12:32:57.675Z,99508.47
2023-04-02T12:35:27.770Z,99508.73
2023-04-02T12:37:57.403Z,99518.02
2023-04-02T12:40:26.276Z,99524.00
2023-04-02T12:42:56.942Z,99514.89
2023-04-02T12:45:28.611Z,99520.59
2023-04-02T12:47:58.191Z,99530.14
2023-04-02T12:50:27.155Z,99517.25
2023-04-02T12:52:59.112Z,99527.63
2023-04-02T12:55:27.407Z,99522.86
2023-04-02T12:57:58.600Z,99528.57
2023-04-02T13:00:28.805Z,99522.60
2023-04-02T13:03:01.997Z,99526.63
2023-04-02T13:05:37.029Z,99528.78
2023-04-02T13:08:06.271Z,99532.03
2023-04-02T13:10:34.993Z,99540.20
2023-04-02T13:13:03.759Z,99538.36
2023-04-02T13:15:33.287Z,99539.04
2023-04-02T13:18:17.054Z,99550.81
2023-04-02T13:20:58.383Z,99552.85
2023-04-02T13:23:29.477Z,99548.20
2023-04-02T13:26:01.862Z,99534.51
2023-04-02T13:28:30.355Z,99541.73
2023-04-02T13:31:00.796Z,99537.91
2023-04-02T13:33:30.777Z,99537.08
2023-04-02T13:35:58.918Z,99539.14
2023-04-02T13:38:28.619Z,99531.30
2023-04-02T13:40:56.991Z,99537.56
2023-04-02T13:43:25.164Z,99533.67
2023-04-02T13:45:53.526Z,99530.31
2023-04-02T13:48:28.806Z,99528.31
2023-04-02T13:50:57.510Z,99532.83
2023-04-02T13:53:28.398Z,99528.73
2023-04-02T13:55:56.708Z,99524.79
2023-04-02T13:58:25.353Z,99527.95
2023-04-02T14:00:58.401Z,99526.30
2023-04-02T14:03:27.484Z,99527.89
2023-04-02T14:05:59.586Z,99522.09
2023-04-02T14:08:34.144Z,99524.23
2023-04-02T14:11:21.262Z,99520.34
2023-04-02T14:13:52.411Z,99523.46
2023-04-02T14:16:23.722Z,99527.80
2023-04-02T14:19:11.146Z,99521.48
2023-04-02T14:21:39.264Z,99520.33
2023-04-02T14:24:10.214Z,99511.42
2023-04-02T14:26:41.493Z,99512.45
2023-04-02T14:29:28.803Z,99515.71
2023-04-02T14:32:06.187Z,99511.73
2023-04-02T14:34:35.061Z,99500.91
2023-04-02T14:37:03.295Z,99500.20
2023-04-02T14:39:38.841Z,99494.83
2023-04-02T14:42:07.180Z,99497.89
2023-04-02T14:44:37.376Z,99492.36
2023-04-02T14:47:17.139Z,99489.41
2023-04-02T14:49:46.252Z,99480.96
2023-04-02T14:52:16.208Z,99485.91
2023-04-02T14:55:09.561Z,99483.28
2023-04-02T14:57:38.173Z,99481.00
2023-04-02T15:00:22.889Z,99474.26
2023-04-02T15:03:18.847Z,99473.19
2023-04-02T15:05:52.401Z,99467.80
2023-04-02T15:08:27.392Z,99465.86
2023-04-02T15:11:02.976Z,99454.46
2023-04-02T15:13:40.367Z,99462.66
2023-04-02T15:16:13.768Z,99461.56
2023-04-02T15:18:43.460Z,99456.16
2023-04-02T15:21:17.348Z,99459.71
2023-04-02T15:24:03.826Z,99458.66
2023-04-02T15:26:38.365Z,99451.95
2023-04-02T15:29:27.747Z,99454.88
2023-04-02T15:32:01.247Z,99464.30
2023-04-02T15:34:34.985Z,99463.40
2023-04-02T15:37:29.461Z,99464.57
2023-04-02T15:40:16.760Z,99466.06
2023-04-02T15:43:04.320Z,99461.88
2023-04-02T15:45:55.782Z,99462.52
2023-04-02T15:48:31.270Z,99465.38
2023-04-02T15:50:59.720Z,99461.75
2023-04-02T15:53:50.157Z,99465.21
2023-04-02T15:56:39.317Z,99463.24
2023-04-02T15:59:07.657Z,99462.34
2023-04-02T16:01:59.397Z,99460.21
2023-04-02T16:04:37.883Z,99457.77
2023-04-02T16:07:12.771Z,99460.78
2023-04-02T16:09:48.007Z,99464.95
2023-04-02T16:12:18.059Z,99461.19
2023-04-02T16:14:46.970Z,99462.56
2023-04-02T16:17:35.236Z,99460.50
2023-04-02T16:20:06.777Z,99459.95
2023-04-02T16:22:35.257Z,99458.73
2023-04-02T16:25:06.838Z,99453.52
2023-04-02T16:27:35.230Z,99449.52
2023-04-02T16:30:03.676Z,99456.01
2023-04-02T16:32:43.765Z,99456.45
2023-04-02T16:35:41.964Z,99452.09
2023-04-02T16:38:13.767Z,99449.48
2023-04-02T16:40:42.431Z,99450.45
2023-04-02T16:43:43.583Z,99448.70
2023-04-02T16:46:28.339Z,99444.89
2023-04-02T16:49:23.241Z,99452.45
2023-04-02T16:51:54.453Z,99445.34
2023-04-02T16:54:46.108Z,99447.10
2023-04-02T16:57:18.893Z,99452.64
2023-04-02T16:59:47.310Z,99459.22
2023-04-02T17:02:34.006Z,99465.73
2023-04-02T17:05:02.620Z,99471.55
2023-04-02T17:07:31.363Z,99470.79
2023-04-02T17:10:22.603Z,99466.81
2023-04-02T17:13:02.838Z,99462.80
2023-04-02T17:15:33.675Z,99456.05
2023-04-02T17:18:24.819Z,99456.49
2023-04-02T17:21:01.112Z,99460.23
2023-04-02T17:23:29.575Z,99459.17
2023-04-02T17:26:03.289Z,99456.05
2023-04-02T17:28:37.068Z,99451.22
2023-04-02T17:31:10.469Z,99445.66
2023-04-02T17:33:39.148Z,99447.67
2023-04-02T17:36:07.717Z,99443.14
2023-04-02T17:38:50.631Z,99444.65
2023-04-02T17:41:20.267Z,99441.84
2023-04-02T17:43:52.743Z,99434.26
2023-04-02T17:46:24.275Z,99437.13
2023-04-02T17:48:56.140Z,99442.36
2023-04-02T17:51:44.041Z,99443.33
2023-04-02T17:54:16.969Z,99433.16
2023-04-02T17:56:48.339Z,99437.46
2023-04-02T17:59:29.760Z,99431.63
2023-04-02T18:02:16.487Z,99429.20
2023-04-02T18:05:03.327Z,99431.45
2023-04-02T18:07:53.329Z,99415.62
2023-04-02T18:10:22.080Z,99409.48
2023-04-02T18:12:50.317Z,99407.70
2023-04-02T18:15:23.519Z,99409.66
2023-04-02T18:18:04.073Z,99400.46
2023-04-02T18:20:59.082Z,99402.44
2023-04-02T18:23:33.777Z,99398.80
2023-04-02T18:26:02.182Z,99393.33
2023-04-02T18:28:45.841Z,99392.13
2023-04-02T18:31:34.427Z,99386.15
2023-04-02T18:34:22.902Z,99381.26
2023-04-02T18:36:57.944Z,99385.63
2023-04-02T18:39:36.369Z,99378.59
2023-04-02T18:42:13.931Z,99382.73
2023-04-02T18:44:45.632Z,99376.54
2023-04-02T18:47:19.933Z,99381.36
2023-04-02T18:49:57.931Z,99384.93
2023-04-02T18:52:26.434Z,99381.13
2023-04-02T18:55:06.615Z,99384.22
2023-04-02T18:57:36.378Z,99386.81
2023-04-02T19:00:25.682Z,99388.31
2023-04-02T19:02:59.502Z,99382.48
2023-04-02T19:05:41.723Z,99382.66
2023-04-02T19:08:11.202Z,99382.33
2023-04-02T19:10:40.942Z,99378.50
2023-04-02T19:13:14.209Z,99379.45
2023-04-02T19:15:54.470Z,99379.48
2023-04-02T19:18:31.759Z,99376.27
2023-04-02T19:21:04.680Z,99379.23
2023-04-02T19:23:37.724Z,99377.20
2023-04-02T19:26:18.122Z,99381.40
2023-04-02T19:28:49.456Z,99375.09
2023-04-02T19:31:17.598Z,99369.81
2023-04-02T19:34:09.485Z,99372.08
2023-04-02T19:36:45.094Z,99371.08
2023-04-02T19:39:22.766Z,99367.34
2023-04-02T19:41:52.305Z,99363.76
2023-04-02T19:44:20.457Z,99362.41
2023-04-02T19:46:49.151Z,99365.02
2023-04-02T19:49:20.168Z,99356.28
2023-04-02T19:51:48.834Z,99356.48
2023-04-02T19:54:17.140Z,99352.55
2023-04-02T19:56:45.624Z,99347.09
2023-04-02T19:59:18.741Z,99345.20
2023-04-02T20:01:47.438Z,99346.75
2023-04-02T20:04:15.951Z,99345.71
2023-04-02T20:06:44.484Z,99342.29
2023-04-02T20:09:12.796Z,99343.33
2023-04-02T20:11:41.299Z,99341.14
2023-04-02T20:14:13.300Z,99340.11
2023-04-02T20:16:45.372Z,99339.10
2023-04-02T20:19:14.385Z,99332.77
2023-04-02T20:21:46.127Z,99329.70
2023-04-02T20:24:14.651Z,99331.97
2023-04-02T20:26:43.091Z,99334.73
2023-04-02T20:29:14.324Z,99333.90
2023-04-02T20:31:42.787Z,99331.84
2023-04-02T20:34:11.219Z,99333.39
2023-04-02T20:36:40.272Z,99332.55
2023-04-02T20:39:09.422Z,99331.17
2023-04-02T20:41:38.050Z,99330.16
2023-04-02T20:44:09.962Z,99323.30
2023-04-02T20:46:40.294Z,99320.73
2023-04-02T20:49:08.564Z,99316.61
2023-04-02T20:51:38.289Z,99318.34
2023-04-02T20:54:06.639Z,99315.08
2023-04-02T20:56:37.633Z,99317.65
2023-04-02T20:59:06.187Z,99313.36
2023-04-02T21:01:34.379Z,99315.08
2023-04-02T21:04:03.296Z,99305.96
2023-04-02T21:06:32.909Z,99303.04
2023-04-02T21:09:02.227Z,99303.73
2023-04-02T21:11:35.184Z,99302.70
2023-04-02T21:14:04.394Z,99300.30
2023-04-02T21:16:32.985Z,99296.00
2023-04-02T21:19:03.382Z,99286.73
2023-04-02T21:21:32.375Z,99286.08
2023-04-02T21:24:04.557Z,99283.34
2023-04-02T21:26:34.814Z,99278.70
2023-04-02T21:29:03.532Z,99274.07
2023-04-02T21:31:34.433Z,99270.63
2023-04-02T21:34:03.012Z,99270.45
2023-04-02T21:36:35.531Z,99266.34
2023-04-02T21:39:05.692Z,99259.11
2023-04-02T21:41:34.767Z,99258.77
2023-04-02T21:44:03.508Z,99256.55
2023-04-02T21:46:32.121Z,99258.27
2023-04-02T21:49:00.516Z,99255.17
2023-04-02T21:51:29.527Z,99250.73
2023-04-02T21:53:58.037Z,99250.93
2023-04-02T21:56:27.185Z,99245.77
2023-04-02T21:58:55.593Z,99244.75
2023-04-02T22:01:27.670Z,99238.73
2023-04-02T22:03:57.020Z,99241.50
2023-04-02T22:06:25.732Z,99242.04
2023-04-02T22:08:55.051Z,99238.41
2023-04-02T22:11:30.287Z,99235.48
2023-04-02T22:13:58.937Z,99238.94
2023-04-02T22:16:28.024Z,99228.63
2023-04-02T22:18:56.551Z,99228.30
2023-04-02T22:21:25.693Z,99224.34
2023-04-02T22:23:57.780Z,99225.04
2023-04-02T22:26:27.589Z,99216.61
2023-04-02T22:28:56.007Z,99219.34
2023-04-02T22:31:25.720Z,99220.70
2023-04-02T22:33:54.756Z,99221.69
2023-04-02T22:36:23.099Z,99219.77
2023-04-02T22:38:52.010Z,99219.59
2023-04-02T22:41:25.780Z,99214.41
2023-04-02T22:43:54.717Z,99206.82
2023-04-02T22:46:23.094Z,99205.77
2023-04-02T22:48:51.267Z,99196.64
2023-04-02T22:51:21.331Z,99193.35
2023-04-02T22:53:49.905Z,99193.36
2023-04-02T22:56:18.988Z,99191.29
2023-04-02T22:58:47.368Z,99189.73
2023-04-02T23:01:16.786Z,99184.02
2023-04-02T23:03:45.246Z,99186.94
2023-04-02T23:06:14.503Z,99179.36
2023-04-02T23:08:43.032Z,99177.97
2023-04-02T23:11:14.861Z,99177.42
2023-04-02T23:13:44.560Z,99168.14
2023-04-02T23:16:13.130Z,99157.13
2023-04-02T23:18:47.457Z,99163.14
2023-04-02T23:21:16.732Z,99159.88
2023-04-02T23:23:45.020Z,99149.04
2023-04-02T23:26:14.553Z,99150.02
2023-04-02T23:28:42.753Z,99143.86
2023-04-02T23:31:16.041Z,99143.82
2023-04-02T23:33:44.683Z,99152.92
2023-04-02T23:36:26.632Z,99143.61
2023-04-02T23:38:55.893Z,99146.51
2023-04-02T23:41:24.898Z,99137.89
2023-04-02T23:43:53.150Z,99142.14
2023-04-02T23:46:23.028Z,99137.45
2023-04-02T23:48:51.918Z,99132.77
2023-04-02T23:51:20.862Z,99135.80
2023-04-02T23:53:49.764Z,99133.34
2023-04-02T23:56:21.912Z,99135.36
2023-04-02T23:58:50.533Z,99126.22
